CheckWX is a tool to help pilots better visualize weather data.  It is not intended as a substitute for an official pre-flight weather briefing.

13:59:46 UTC

2V6 METAR
Yuma Municipalcipal Airport
Yuma, Colorado, USA
Current

26 mins ago

K2V6 201334Z AUTO 34012KT 10SM CLR 25/17 A2987 RMK AO2
Observed
Jul-20 @ 13:34 UTC
Wind
  • 340° at 12 KTS
Visibility
10 SM
Flight Rules
VFR
Cloud Levels
  • Clear skies
Temperature
25°C / 77°F
Dewpoint
17°C / 63°F
Humidity
61%
Altimeter
29.87" Hg
Pressure
1011.52 hPa
Previous

46 mins ago

K2V6 201314Z AUTO 30012KT 10SM CLR 23/19 A2986 RMK AO2
Observed
Jul-20 @ 13:14 UTC
Wind
  • 300° at 12 KTS
Visibility
10 SM
Flight Rules
VFR
Cloud Levels
  • Clear skies
Temperature
23°C / 73°F
Dewpoint
19°C / 66°F
Humidity
78%
Altimeter
29.86" Hg
Pressure
1011.22 hPa
Previous

1 hour ago

K2V6 201254Z AUTO 28007KT 10SM CLR 21/18 A2986 RMK AO2
Observed
Jul-20 @ 12:54 UTC
Wind
  • 280° at 7 KTS
Visibility
10 SM
Flight Rules
VFR
Cloud Levels
  • Clear skies
Temperature
21°C / 70°F
Dewpoint
18°C / 64°F
Humidity
83%
Altimeter
29.86" Hg
Pressure
1011.22 hPa